KALX

Thomas C Russell Field Airport

Alexander City, Alabama, USA
METAR KALX 231055Z AUTO 00000KT 10SM CLR 07/02 A2999 RMK AO2 T00650024
Observed Flight Rules
Jan-23 @ 10:55 UTC (52 minutes ago) Visual Flight Rules
Wind Visibility Clouds
Calm 10 miles
  • Clear skies
Temperatures Readings
Current 7°C / 45°F
Dewpoint 2°C / 36°F
Humidity 71%
Altimeter 29.99" Hg
Pressure 1016 hPa
Elevation 209
METAR KALX 231055Z AUTO 00000KT 10SM CLR 07/02 A2999 RMK AO2 T00650024
Observed Flight Rules
Jan-23 @ 10:55 UTC
(52 minutes ago)
VFR
Wind Visibility
Calm 10 miles
Clouds
  • Clear skies
Temperature Dewpoint
7°C / 45°F 2°C / 36°F
Humidity Altimeter Pressure
71% 29.99" Hg 1016 hPa